Airfield :
LOGIN :

Register | Disclaimer

   EN    FR    IT 

 










Legend :    VFR   Marginal VFR   IFR   Intensive IFR   Very Intensive IFR
Visi :
Ceiling :
>= 8 km
>= 3000ft
5 to 8 km
1000 to 3000 ft
1500m to 5 km
500 to 1000 ft
800 to 1500m
200 to 500 ft
< 800m
< 200 ft
Symbols :   Thunderstorms  Fog  Heavy snow  Heavy precipitations  Wind > 20 kt
SIGMETs :     Misc.  Thunderstorms  Icing  Turbulence  Mountain Waves  Volcanic Ashes






- Airport Elevation : 1411 ft
- IATA code : GVA


LSGG - Genève Cointrin

CURRENT METAR :
  • 092050Z 01007KT 310V050 9999 FEW010 SCT035 05/01 Q1019 NOSIG

EXPIRED METARs :
  • 092020Z VRB02KT 9999 VCSH FEW020 BKN038 06/02 Q1019 NOSIG
  • 091950Z 01003KT 9999 VCSH FEW015 BKN035 05/03 Q1019 NOSIG
  • 091920Z VRB02KT 9999 FEW015 BKN035 05/03 Q1018 NOSIG
  • 091850Z 32003KT 250V030 9999 -SHRA FEW025 BKN035 06/02 Q1017 NOSIG
  • 091820Z 33004KT 260V040 9999 -SHRA FEW025 BKN035 07/02 Q1016 NOSIG

TAF TAF LSGG
Valid from the 09 at 21:00 until the 11 at 03:00 UTC


092025Z 0921/1103 32005KT 9999 FEW015 BKN035 TX06/1015Z TN02/1006Z
TEMPO 0921/0924 SHRA
BECMG 1000/1003 SCT030
PROB30
TEMPO 1003/1008 MIFG
BECMG 1008/1011 04008KT CAVOK
BECMG 1017/1019 VRB03KT
ATIS : +41 22 417 40 81



MET'MAP, your aeronautical weather chart ! - Copyright ORBIFLY December 2007 - Disclaimer

ORBIFLY MET'MAP TEAM :

Programming & Development : Alexandra Zaïnal
Concept & original design : Baudouin d'Aumeries
Assistance for programming : Marc-Olivier Méhu
Technical & hardware support : Manuel Goepfert

Contact : metmap@orbifly.com




SOURCES & CREDITS :

   NOAA